createdAt,value
2022-08-03T00:02:18.475Z,25.60
2022-08-03T00:04:45.995Z,25.80
2022-08-03T00:07:13.425Z,25.80
2022-08-03T00:09:40.793Z,25.30
2022-08-03T00:12:08.617Z,25.30
2022-08-03T00:14:36.100Z,25.30
2022-08-03T00:17:03.748Z,25.50
2022-08-03T00:19:31.144Z,25.20
2022-08-03T00:21:58.484Z,25.10
2022-08-03T00:24:25.950Z,25.60
2022-08-03T00:26:53.329Z,25.30
2022-08-03T00:29:20.760Z,25.10
2022-08-03T00:31:52.632Z,25.10
2022-08-03T00:34:29.827Z,25.10
2022-08-03T00:37:14.245Z,25.10
2022-08-03T00:39:43.390Z,25.00
2022-08-03T00:42:10.728Z,25.00
2022-08-03T00:44:42.791Z,24.90
2022-08-03T00:47:11.073Z,24.90
2022-08-03T00:49:41.014Z,25.00
2022-08-03T00:52:24.177Z,24.80
2022-08-03T00:54:51.558Z,24.80
2022-08-03T00:57:19.240Z,24.70
2022-08-03T00:59:46.632Z,24.70
2022-08-03T01:02:14.250Z,24.60
2022-08-03T01:04:41.994Z,24.60
2022-08-03T01:07:31.038Z,24.60
2022-08-03T01:10:26.380Z,24.60
2022-08-03T01:13:59.866Z,24.70
2022-08-03T01:16:10.016Z,24.50
2022-08-03T01:19:00.133Z,24.50
2022-08-03T01:21:32.577Z,24.40
2022-08-03T01:24:28.251Z,24.40
2022-08-03T01:27:07.069Z,24.30
2022-08-03T01:30:05.020Z,24.20
2022-08-03T01:32:59.657Z,24.10
2022-08-03T01:35:38.298Z,24.40
2022-08-03T01:38:12.148Z,24.00
2022-08-03T01:40:42.655Z,24.60
2022-08-03T01:43:14.909Z,24.00
2022-08-03T01:46:03.404Z,24.30
2022-08-03T01:48:32.103Z,24.40
2022-08-03T01:51:00.309Z,24.00
2022-08-03T01:53:28.612Z,24.00
2022-08-03T01:55:57.301Z,24.00
2022-08-03T01:58:26.969Z,24.00
2022-08-03T02:00:59.748Z,24.00
2022-08-03T02:03:29.580Z,24.00
2022-08-03T02:06:58.907Z,23.90
2022-08-03T02:08:48.257Z,23.90
2022-08-03T02:11:15.928Z,23.90
2022-08-03T02:13:46.360Z,23.90
2022-08-03T02:16:14.404Z,23.90
2022-08-03T02:18:42.998Z,23.80
2022-08-03T02:21:11.856Z,23.90
2022-08-03T02:23:59.317Z,24.30
2022-08-03T02:26:30.402Z,24.30
2022-08-03T02:29:05.548Z,23.70
2022-08-03T02:31:36.284Z,23.70
2022-08-03T02:34:08.598Z,23.70
2022-08-03T02:36:39.526Z,23.70
2022-08-03T02:39:10.913Z,23.70
2022-08-03T02:41:44.997Z,23.60
2022-08-03T02:44:14.677Z,24.10
2022-08-03T02:46:46.805Z,23.60
2022-08-03T02:49:40.995Z,23.60
2022-08-03T02:52:12.570Z,23.80
2022-08-03T02:54:44.348Z,23.60
2022-08-03T02:57:13.694Z,23.60
2022-08-03T02:59:42.667Z,23.50
2022-08-03T03:02:10.561Z,23.50
2022-08-03T03:05:51.113Z,24.10
2022-08-03T03:07:51.274Z,23.40
2022-08-03T03:10:25.784Z,23.40
2022-08-03T03:12:57.703Z,23.40
2022-08-03T03:15:26.568Z,23.90
2022-08-03T03:17:55.303Z,23.40
2022-08-03T03:20:29.861Z,23.50
2022-08-03T03:22:59.986Z,24.00
2022-08-03T03:25:30.530Z,24.00
2022-08-03T03:27:59.429Z,23.50
2022-08-03T03:30:27.565Z,23.30
2022-08-03T03:32:55.125Z,23.30
2022-08-03T03:35:22.669Z,23.30
2022-08-03T03:37:50.066Z,23.20
2022-08-03T03:40:17.449Z,23.20
2022-08-03T03:42:45.004Z,23.70
2022-08-03T03:45:13.173Z,23.10
2022-08-03T03:47:41.144Z,23.10
2022-08-03T03:50:10.797Z,23.00
2022-08-03T03:52:38.212Z,23.00
2022-08-03T03:55:06.256Z,23.00
2022-08-03T03:57:35.088Z,23.00
2022-08-03T04:00:03.532Z,22.90
2022-08-03T04:02:31.797Z,22.90
2022-08-03T04:05:17.759Z,22.90
2022-08-03T04:08:34.278Z,22.90
2022-08-03T04:11:19.462Z,22.90
2022-08-03T04:14:05.182Z,22.90
2022-08-03T04:16:43.452Z,23.50
2022-08-03T04:19:22.638Z,23.00
2022-08-03T04:21:56.991Z,22.90
2022-08-03T04:24:32.818Z,22.90
2022-08-03T04:27:02.558Z,22.90
2022-08-03T04:29:34.832Z,22.90
2022-08-03T04:32:05.233Z,22.90
2022-08-03T04:34:32.933Z,22.90
2022-08-03T04:37:03.181Z,22.90
2022-08-03T04:39:32.613Z,23.30
2022-08-03T04:42:07.857Z,22.80
2022-08-03T04:44:39.068Z,23.00
2022-08-03T04:47:07.017Z,23.30
2022-08-03T04:50:00.994Z,23.30
2022-08-03T04:52:28.389Z,22.80
2022-08-03T04:54:56.492Z,22.80
2022-08-03T04:57:23.872Z,22.80
2022-08-03T04:59:59.583Z,23.10
2022-08-03T05:02:31.177Z,23.40
2022-08-03T05:04:59.154Z,22.80
2022-08-03T05:07:26.533Z,22.80
2022-08-03T05:10:15.074Z,23.20
2022-08-03T05:12:45.565Z,22.90
2022-08-03T05:15:13.226Z,23.00
2022-08-03T05:17:40.867Z,23.50
2022-08-03T05:20:08.937Z,23.50
2022-08-03T05:22:36.323Z,23.20
2022-08-03T05:25:04.011Z,23.60
2022-08-03T05:27:31.380Z,23.40
2022-08-03T05:30:29.786Z,23.50
2022-08-03T05:32:46.449Z,23.60
2022-08-03T05:36:01.413Z,23.80
2022-08-03T05:38:02.826Z,24.20
2022-08-03T05:40:31.594Z,24.10
2022-08-03T05:43:00.090Z,24.40
2022-08-03T05:45:28.518Z,24.30
2022-08-03T05:47:56.565Z,24.40
2022-08-03T05:50:26.442Z,24.50
2022-08-03T05:52:57.785Z,24.70
2022-08-03T05:55:25.366Z,25.40
2022-08-03T05:57:52.908Z,24.90
2022-08-03T06:00:25.749Z,25.40
2022-08-03T06:02:53.623Z,25.20
2022-08-03T06:05:22.931Z,25.20
2022-08-03T06:07:51.950Z,25.40
2022-08-03T06:10:34.023Z,25.70
2022-08-03T06:13:05.220Z,26.00
2022-08-03T06:15:33.401Z,26.50
2022-08-03T06:18:02.167Z,26.90
2022-08-03T06:20:30.249Z,27.30
2022-08-03T06:23:01.000Z,27.80
2022-08-03T06:25:29.420Z,28.90
2022-08-03T06:27:57.207Z,29.00
2022-08-03T06:30:24.642Z,29.10
2022-08-03T06:32:52.603Z,29.50
2022-08-03T06:35:20.259Z,29.90
2022-08-03T06:37:49.737Z,30.40
2022-08-03T06:40:34.038Z,30.90
2022-08-03T06:43:02.745Z,31.40
2022-08-03T06:45:32.018Z,31.90
2022-08-03T06:48:05.084Z,32.30
2022-08-03T06:50:34.307Z,32.70
2022-08-03T06:53:02.508Z,32.90
2022-08-03T06:55:32.722Z,33.10
2022-08-03T06:58:03.444Z,33.40
2022-08-03T07:00:31.095Z,33.70
2022-08-03T07:02:58.741Z,33.90
2022-08-03T07:05:26.943Z,34.30
2022-08-03T07:07:59.086Z,34.60
2022-08-03T07:10:27.603Z,34.90
2022-08-03T07:12:56.902Z,35.30
2022-08-03T07:15:55.616Z,35.60
2022-08-03T07:18:13.040Z,36.10
2022-08-03T07:20:40.857Z,36.20
2022-08-03T07:23:08.240Z,36.60
2022-08-03T07:25:35.975Z,36.80
2022-08-03T07:28:03.916Z,37.10
2022-08-03T07:30:31.455Z,37.20
2022-08-03T07:32:58.936Z,37.40
2022-08-03T07:35:27.552Z,38.20
2022-08-03T07:37:55.288Z,38.00
2022-08-03T07:40:23.037Z,38.30
2022-08-03T07:42:53.512Z,38.70
2022-08-03T07:45:23.421Z,39.00
2022-08-03T07:47:53.195Z,39.40
2022-08-03T07:50:22.462Z,39.70
2022-08-03T07:52:51.973Z,39.90
2022-08-03T07:55:21.519Z,40.10
2022-08-03T07:58:03.782Z,40.20
2022-08-03T08:00:32.308Z,40.40
2022-08-03T08:02:59.909Z,40.60
2022-08-03T08:05:28.060Z,40.90
2022-08-03T08:08:00.341Z,41.10
2022-08-03T08:10:29.083Z,41.40
2022-08-03T08:12:57.501Z,41.50
2022-08-03T08:15:26.012Z,41.80
2022-08-03T08:17:56.238Z,41.70
2022-08-03T08:20:30.855Z,41.80
2022-08-03T08:23:01.999Z,41.90
2022-08-03T08:25:32.280Z,42.20
2022-08-03T08:28:29.098Z,42.50
2022-08-03T08:30:52.125Z,42.80
2022-08-03T08:33:22.400Z,43.00
2022-08-03T08:35:51.160Z,43.10
2022-08-03T08:38:18.481Z,43.30
2022-08-03T08:40:46.150Z,43.50
2022-08-03T08:43:14.082Z,44.20
2022-08-03T08:45:41.831Z,43.90
2022-08-03T08:48:10.551Z,44.00
2022-08-03T08:50:39.122Z,44.30
2022-08-03T08:53:09.601Z,44.40
2022-08-03T08:55:59.059Z,44.60
2022-08-03T08:58:28.428Z,44.90
2022-08-03T09:00:55.912Z,45.00
2022-08-03T09:03:30.323Z,45.30
2022-08-03T09:06:02.041Z,45.50
2022-08-03T09:08:33.539Z,45.70
2022-08-03T09:11:01.305Z,45.60
2022-08-03T09:13:30.368Z,45.50
2022-08-03T09:16:12.583Z,45.50
2022-08-03T09:18:42.402Z,45.40
2022-08-03T09:21:32.060Z,45.50
2022-08-03T09:24:07.119Z,45.50
2022-08-03T09:26:38.683Z,45.60
2022-08-03T09:29:14.394Z,45.70
2022-08-03T09:31:45.494Z,45.70
2022-08-03T09:34:15.901Z,45.90
2022-08-03T09:36:48.539Z,45.90
2022-08-03T09:39:30.128Z,46.00
2022-08-03T09:42:14.848Z,46.10
2022-08-03T09:44:47.908Z,46.20
2022-08-03T09:47:28.401Z,46.20
2022-08-03T09:50:07.814Z,46.10
2022-08-03T09:52:50.139Z,45.70
2022-08-03T09:55:23.634Z,45.40
2022-08-03T09:58:11.989Z,45.10
2022-08-03T10:00:54.963Z,44.60
2022-08-03T10:03:24.183Z,43.90
2022-08-03T10:05:59.364Z,43.20
2022-08-03T10:08:27.817Z,42.80
2022-08-03T10:10:55.312Z,42.20
2022-08-03T10:13:23.476Z,41.90
2022-08-03T10:16:23.841Z,41.60
2022-08-03T10:18:38.543Z,41.40
2022-08-03T10:21:10.239Z,41.00
2022-08-03T10:24:07.178Z,40.50
2022-08-03T10:26:36.477Z,40.10
2022-08-03T10:29:12.851Z,39.80
2022-08-03T10:31:57.272Z,39.70
2022-08-03T10:34:35.159Z,39.50
2022-08-03T10:37:07.359Z,39.30
2022-08-03T10:39:36.206Z,39.10
2022-08-03T10:42:05.009Z,38.90
2022-08-03T10:44:41.358Z,38.70
2022-08-03T10:47:10.380Z,38.60
2022-08-03T10:49:38.581Z,38.50
2022-08-03T10:52:11.418Z,38.40
2022-08-03T10:55:07.603Z,38.40
2022-08-03T10:57:58.641Z,38.30
2022-08-03T11:00:28.324Z,38.20
2022-08-03T11:03:08.796Z,38.20
2022-08-03T11:05:41.916Z,38.10
2022-08-03T11:08:18.599Z,38.10
2022-08-03T11:10:46.553Z,38.00
2022-08-03T11:13:20.044Z,38.00
2022-08-03T11:15:50.918Z,38.00
2022-08-03T11:18:18.676Z,38.00
2022-08-03T11:21:02.791Z,37.90
2022-08-03T11:24:02.661Z,37.70
2022-08-03T11:26:34.288Z,37.60
2022-08-03T11:29:35.162Z,37.50
2022-08-03T11:32:02.692Z,37.50
2022-08-03T11:34:30.190Z,37.70
2022-08-03T11:37:23.328Z,37.50
2022-08-03T11:39:54.367Z,37.40
2022-08-03T11:42:25.476Z,37.40
2022-08-03T11:45:00.465Z,37.40
2022-08-03T11:47:29.690Z,37.30
2022-08-03T11:50:00.552Z,37.70
2022-08-03T11:52:46.701Z,37.30
2022-08-03T11:55:15.859Z,37.40
2022-08-03T11:59:10.639Z,37.70
2022-08-03T12:00:34.283Z,37.30
2022-08-03T12:03:07.695Z,37.30
2022-08-03T12:05:40.685Z,37.30
2022-08-03T12:08:10.808Z,37.30
2022-08-03T12:10:39.993Z,37.30
2022-08-03T12:14:43.877Z,37.20
2022-08-03T12:15:59.257Z,37.20
2022-08-03T12:18:26.861Z,37.10
2022-08-03T12:21:07.986Z,37.10
2022-08-03T12:23:37.924Z,37.10
2022-08-03T12:26:10.003Z,37.20
2022-08-03T12:28:38.556Z,37.20
2022-08-03T12:31:09.166Z,37.20
2022-08-03T12:34:03.137Z,37.20
2022-08-03T12:36:33.678Z,37.10
2022-08-03T12:39:03.877Z,37.50
2022-08-03T12:41:35.407Z,37.10
2022-08-03T12:44:04.326Z,37.40
2022-08-03T12:46:35.103Z,37.10
2022-08-03T12:49:11.694Z,37.00
2022-08-03T12:51:57.978Z,37.00
2022-08-03T12:54:28.084Z,37.00
2022-08-03T12:57:03.395Z,37.00
2022-08-03T12:59:34.960Z,37.00
2022-08-03T13:02:09.170Z,37.00
2022-08-03T13:04:39.503Z,37.00
2022-08-03T13:07:12.850Z,37.00
2022-08-03T13:09:46.049Z,37.10
2022-08-03T13:12:19.175Z,37.10
2022-08-03T13:14:49.469Z,37.10
2022-08-03T13:17:17.136Z,37.00
2022-08-03T13:19:45.373Z,36.60
2022-08-03T13:22:24.422Z,37.00
2022-08-03T13:24:56.139Z,37.00
2022-08-03T13:28:04.047Z,37.00
2022-08-03T13:30:24.967Z,36.90
2022-08-03T13:33:00.073Z,36.90
2022-08-03T13:35:27.470Z,36.90
2022-08-03T13:37:54.933Z,37.00
2022-08-03T13:40:23.625Z,36.90
2022-08-03T13:42:51.246Z,37.20
2022-08-03T13:45:18.683Z,37.00
2022-08-03T13:47:46.091Z,37.00
2022-08-03T13:50:13.486Z,37.00
2022-08-03T13:52:40.938Z,37.00
2022-08-03T13:55:09.050Z,37.00
2022-08-03T13:58:03.180Z,37.00
2022-08-03T14:00:27.134Z,37.00
2022-08-03T14:03:07.919Z,36.90
2022-08-03T14:05:40.803Z,36.90
2022-08-03T14:08:08.690Z,36.90
2022-08-03T14:10:41.984Z,36.90
2022-08-03T14:13:12.419Z,37.40
2022-08-03T14:15:39.894Z,36.90
2022-08-03T14:18:15.858Z,36.90
2022-08-03T14:20:56.809Z,36.90
2022-08-03T14:23:25.695Z,36.90
2022-08-03T14:25:53.259Z,36.80
2022-08-03T14:28:22.924Z,36.80
2022-08-03T14:30:52.604Z,36.70
2022-08-03T14:33:20.921Z,36.70
2022-08-03T14:35:48.631Z,36.70
2022-08-03T14:38:16.553Z,36.70
2022-08-03T14:40:44.222Z,36.60
2022-08-03T14:43:11.792Z,36.60
2022-08-03T14:45:40.189Z,36.70
2022-08-03T14:50:28.957Z,36.70
2022-08-03T14:50:57.333Z,36.60
2022-08-03T14:53:51.021Z,36.70
2022-08-03T14:56:18.358Z,36.60
2022-08-03T14:58:45.762Z,37.10
2022-08-03T15:02:05.134Z,36.50
2022-08-03T15:04:00.796Z,36.50
2022-08-03T15:06:28.346Z,36.50
2022-08-03T15:09:13.836Z,36.50
2022-08-03T15:11:44.525Z,36.50
2022-08-03T15:14:13.485Z,36.50
2022-08-03T15:16:42.687Z,36.50
2022-08-03T15:20:03.978Z,36.50
2022-08-03T15:22:00.972Z,36.50
2022-08-03T15:24:28.810Z,36.50
2022-08-03T15:26:56.154Z,36.50
2022-08-03T15:30:09.519Z,36.50
2022-08-03T15:32:10.901Z,36.50
2022-08-03T15:34:38.328Z,36.40
2022-08-03T15:37:15.134Z,36.40
2022-08-03T15:39:59.968Z,36.40
2022-08-03T15:42:29.590Z,36.30
2022-08-03T15:44:57.285Z,36.30
2022-08-03T15:47:24.715Z,36.40
2022-08-03T15:49:52.094Z,36.30
2022-08-03T15:52:19.446Z,36.30
2022-08-03T15:54:46.767Z,36.30
2022-08-03T15:57:14.214Z,36.30
2022-08-03T15:59:41.694Z,36.30
2022-08-03T16:02:09.363Z,36.30
2022-08-03T16:04:37.022Z,36.30
2022-08-03T16:07:04.793Z,36.30
2022-08-03T16:09:43.141Z,36.30
2022-08-03T16:12:16.295Z,36.20
2022-08-03T16:14:52.470Z,36.20
2022-08-03T16:17:21.579Z,36.20
2022-08-03T16:19:49.535Z,36.10
2022-08-03T16:22:19.576Z,36.50
2022-08-03T16:24:49.795Z,36.10
2022-08-03T16:27:37.500Z,36.10
2022-08-03T16:30:09.186Z,36.10
2022-08-03T16:32:38.284Z,36.10
2022-08-03T16:35:07.144Z,36.10
2022-08-03T16:37:38.824Z,36.20
2022-08-03T16:40:17.300Z,36.10
2022-08-03T16:42:47.229Z,36.10
2022-08-03T16:45:14.761Z,36.10
2022-08-03T16:47:42.346Z,36.20
2022-08-03T16:50:17.192Z,36.20
2022-08-03T16:52:48.346Z,36.10
2022-08-03T16:55:43.553Z,36.10
2022-08-03T16:58:05.573Z,36.10
2022-08-03T17:00:41.257Z,36.20
2022-08-03T17:03:16.409Z,36.10
2022-08-03T17:05:49.749Z,36.20
2022-08-03T17:08:26.507Z,36.10
2022-08-03T17:10:56.276Z,36.20
2022-08-03T17:13:38.878Z,36.20
2022-08-03T17:16:09.976Z,36.20
2022-08-03T17:18:55.179Z,36.10
2022-08-03T17:21:29.441Z,36.10
2022-08-03T17:24:12.503Z,36.10
2022-08-03T17:26:46.510Z,36.10
2022-08-03T17:29:19.392Z,36.10
2022-08-03T17:31:52.373Z,36.00
2022-08-03T17:34:42.792Z,36.00
2022-08-03T17:37:50.715Z,36.00
2022-08-03T17:40:01.285Z,36.00
2022-08-03T17:42:33.248Z,36.00
2022-08-03T17:47:57.882Z,36.00
2022-08-03T17:50:50.314Z,36.00
2022-08-03T17:53:28.144Z,35.90
2022-08-03T17:56:45.020Z,36.00
2022-08-03T17:59:52.328Z,35.90
2022-08-03T18:03:12.444Z,35.90
2022-08-03T18:06:11.859Z,35.90
2022-08-03T18:08:52.265Z,35.90
2022-08-03T18:11:24.394Z,35.80
2022-08-03T18:14:23.805Z,35.80
2022-08-03T18:17:01.538Z,35.80
2022-08-03T18:20:03.428Z,35.70
2022-08-03T18:22:20.959Z,35.80
2022-08-03T18:24:57.364Z,35.70
2022-08-03T18:27:42.449Z,35.70
2022-08-03T18:30:16.897Z,35.60
2022-08-03T18:33:00.803Z,36.10
2022-08-03T18:35:53.292Z,35.60
2022-08-03T18:38:18.844Z,35.50
2022-08-03T18:40:48.604Z,36.00
2022-08-03T18:48:23.145Z,35.40
2022-08-03T18:51:06.845Z,35.30
2022-08-03T18:54:02.551Z,35.30
2022-08-03T18:56:52.669Z,35.30
2022-08-03T18:59:30.500Z,35.10
2022-08-03T19:02:09.253Z,35.10
2022-08-03T19:04:47.378Z,35.00
2022-08-03T19:07:24.266Z,34.90
2022-08-03T19:10:03.816Z,34.90
2022-08-03T19:12:50.172Z,34.80
2022-08-03T19:15:36.011Z,34.70
2022-08-03T19:18:08.738Z,34.70
2022-08-03T19:20:38.147Z,34.60
2022-08-03T19:23:06.771Z,34.50
2022-08-03T19:25:38.531Z,34.50
2022-08-03T19:28:09.409Z,34.40
2022-08-03T19:30:46.399Z,34.30
2022-08-03T19:33:22.719Z,34.20
2022-08-03T19:35:55.230Z,34.10
2022-08-03T19:38:28.689Z,34.00
2022-08-03T19:41:13.697Z,33.80
2022-08-03T19:43:53.564Z,33.60
2022-08-03T19:47:17.091Z,33.50
2022-08-03T19:50:04.698Z,33.40
2022-08-03T19:52:42.171Z,33.30
2022-08-03T19:55:12.086Z,33.20
2022-08-03T19:57:43.994Z,33.10
2022-08-03T20:00:14.204Z,33.00
2022-08-03T20:02:43.814Z,33.00
2022-08-03T20:05:15.368Z,32.90
2022-08-03T20:07:47.678Z,33.30
2022-08-03T20:10:17.279Z,32.80
2022-08-03T20:12:46.500Z,32.80
2022-08-03T20:15:22.236Z,32.60
2022-08-03T20:17:56.019Z,32.60
2022-08-03T20:20:48.315Z,32.50
2022-08-03T20:23:19.609Z,32.40
2022-08-03T20:25:59.099Z,32.40
2022-08-03T20:28:30.829Z,32.30
2022-08-03T20:31:02.630Z,32.60
2022-08-03T20:33:46.409Z,32.20
2022-08-03T20:36:18.261Z,32.00
2022-08-03T20:38:48.058Z,32.00
2022-08-03T20:41:16.694Z,31.80
2022-08-03T20:43:45.279Z,31.70
2022-08-03T20:46:31.738Z,32.20
2022-08-03T20:49:04.306Z,31.60
2022-08-03T20:51:56.856Z,31.50
2022-08-03T20:57:13.843Z,31.30
2022-08-03T20:59:50.563Z,31.30
2022-08-03T21:02:29.588Z,31.20
2022-08-03T21:05:08.671Z,31.10
2022-08-03T21:08:04.826Z,31.00
2022-08-03T21:10:38.541Z,31.00
2022-08-03T21:13:04.223Z,36.00
2022-08-03T21:13:07.723Z,31.40
2022-08-03T21:16:11.419Z,30.90
2022-08-03T21:18:44.333Z,30.80
2022-08-03T21:21:14.909Z,30.80
2022-08-03T21:23:49.054Z,30.70
2022-08-03T21:26:27.187Z,30.70
2022-08-03T21:28:56.932Z,30.60
2022-08-03T21:31:26.534Z,30.60
2022-08-03T21:34:03.695Z,30.50
2022-08-03T21:36:36.563Z,30.40
2022-08-03T21:39:08.014Z,30.40
2022-08-03T21:41:37.571Z,30.30
2022-08-03T21:44:06.098Z,30.30
2022-08-03T21:46:39.478Z,30.20
2022-08-03T21:50:06.895Z,30.20
2022-08-03T21:52:05.352Z,30.10
2022-08-03T21:54:40.755Z,30.10
2022-08-03T21:57:25.982Z,30.00
2022-08-03T21:59:56.526Z,29.90
2022-08-03T22:02:31.528Z,29.90
2022-08-03T22:04:59.955Z,30.00
2022-08-03T22:07:28.670Z,29.80
2022-08-03T22:09:58.588Z,29.70
2022-08-03T22:12:28.259Z,29.70
2022-08-03T22:15:00.335Z,29.60
2022-08-03T22:17:55.263Z,29.90
2022-08-03T22:20:25.384Z,29.60
2022-08-03T22:22:57.003Z,29.50
2022-08-03T22:25:36.500Z,29.50
2022-08-03T22:28:15.111Z,29.40
2022-08-03T22:30:43.161Z,29.30
2022-08-03T22:33:12.119Z,29.30
2022-08-03T22:35:44.211Z,29.30
2022-08-03T22:38:16.759Z,29.20
2022-08-03T22:40:45.001Z,29.10
2022-08-03T22:43:12.500Z,29.10
2022-08-03T22:46:07.817Z,29.30
2022-08-03T22:48:40.758Z,29.30
2022-08-03T22:51:09.747Z,29.00
2022-08-03T22:53:38.457Z,28.90
2022-08-03T22:56:06.831Z,28.80
2022-08-03T22:58:34.637Z,28.80
2022-08-03T23:01:06.245Z,28.80
2022-08-03T23:03:59.804Z,28.70
2022-08-03T23:06:27.063Z,28.60
2022-08-03T23:08:55.249Z,28.60
2022-08-03T23:11:23.845Z,28.60
2022-08-03T23:13:54.082Z,28.50
2022-08-03T23:16:29.071Z,28.50
2022-08-03T23:18:59.862Z,28.40
2022-08-03T23:21:52.942Z,28.40
2022-08-03T23:24:30.373Z,28.40
2022-08-03T23:26:58.778Z,28.30
2022-08-03T23:29:28.693Z,28.30
2022-08-03T23:31:57.508Z,28.20
2022-08-03T23:34:44.753Z,28.20
2022-08-03T23:37:15.197Z,28.20
2022-08-03T23:39:45.794Z,28.10
2022-08-03T23:42:18.729Z,28.10
2022-08-03T23:44:46.837Z,28.00
2022-08-03T23:47:14.474Z,28.50
2022-08-03T23:49:41.954Z,28.50
2022-08-03T23:52:22.122Z,27.80
2022-08-03T23:55:11.958Z,27.70
2022-08-03T23:57:45.527Z,27.70
